sensor_id;sensor_type;location;lat;lon;timestamp;temperature;humidity
296;DHT22;132;48.770;9.200;2023-02-08T00:02:25;-2.20;1.00
296;DHT22;132;48.770;9.200;2023-02-08T00:04:51;-2.20;1.00
296;DHT22;132;48.770;9.200;2023-02-08T00:07:17;-2.20;1.00
296;DHT22;132;48.770;9.200;2023-02-08T00:09:44;-2.20;1.00
296;DHT22;132;48.770;9.200;2023-02-08T00:12:10;-2.20;1.00
296;DHT22;132;48.770;9.200;2023-02-08T00:14:36;-2.30;1.00
296;DHT22;132;48.770;9.200;2023-02-08T00:17:03;-2.30;1.00
296;DHT22;132;48.770;9.200;2023-02-08T00:19:30;-2.30;1.00
296;DHT22;132;48.770;9.200;2023-02-08T00:21:56;-2.20;1.00
296;DHT22;132;48.770;9.200;2023-02-08T00:24:22;-2.30;1.00
296;DHT22;132;48.770;9.200;2023-02-08T00:26:49;-2.40;1.00
296;DHT22;132;48.770;9.200;2023-02-08T00:29:15;-2.40;1.00
296;DHT22;132;48.770;9.200;2023-02-08T00:31:41;-2.40;1.00
296;DHT22;132;48.770;9.200;2023-02-08T00:34:08;-2.30;1.00
296;DHT22;132;48.770;9.200;2023-02-08T00:36:34;-2.40;1.00
296;DHT22;132;48.770;9.200;2023-02-08T00:39:00;-2.40;1.00
296;DHT22;132;48.770;9.200;2023-02-08T00:41:27;-2.40;1.00
296;DHT22;132;48.770;9.200;2023-02-08T00:43:53;-2.40;1.00
296;DHT22;132;48.770;9.200;2023-02-08T00:46:20;-2.50;1.00
296;DHT22;132;48.770;9.200;2023-02-08T00:48:49;-2.50;1.00
296;DHT22;132;48.770;9.200;2023-02-08T00:51:15;-2.40;1.00
296;DHT22;132;48.770;9.200;2023-02-08T00:53:43;-2.50;1.00
296;DHT22;132;48.770;9.200;2023-02-08T00:56:11;-2.60;1.00
296;DHT22;132;48.770;9.200;2023-02-08T00:58:39;-2.60;1.00
296;DHT22;132;48.770;9.200;2023-02-08T01:01:06;-2.60;1.00
296;DHT22;132;48.770;9.200;2023-02-08T01:03:37;-2.60;1.00
296;DHT22;132;48.770;9.200;2023-02-08T01:06:07;-2.60;1.00
296;DHT22;132;48.770;9.200;2023-02-08T01:08:34;-2.60;1.00
296;DHT22;132;48.770;9.200;2023-02-08T01:11:16;-2.70;1.00
296;DHT22;132;48.770;9.200;2023-02-08T01:13:44;-2.70;1.00
296;DHT22;132;48.770;9.200;2023-02-08T01:16:22;-2.70;1.00
296;DHT22;132;48.770;9.200;2023-02-08T01:18:51;-2.70;1.00
296;DHT22;132;48.770;9.200;2023-02-08T01:21:20;-2.80;1.00
296;DHT22;132;48.770;9.200;2023-02-08T01:23:48;-2.70;1.00
296;DHT22;132;48.770;9.200;2023-02-08T01:26:16;-2.60;1.00
296;DHT22;132;48.770;9.200;2023-02-08T01:28:45;-2.80;1.00
296;DHT22;132;48.770;9.200;2023-02-08T01:31:15;-2.80;1.00
296;DHT22;132;48.770;9.200;2023-02-08T01:33:41;-2.80;1.00
296;DHT22;132;48.770;9.200;2023-02-08T01:36:09;-2.80;1.00
296;DHT22;132;48.770;9.200;2023-02-08T01:38:36;-2.80;1.00
296;DHT22;132;48.770;9.200;2023-02-08T01:41:04;-2.80;1.00
296;DHT22;132;48.770;9.200;2023-02-08T01:43:33;-2.80;1.00
296;DHT22;132;48.770;9.200;2023-02-08T01:46:00;-2.80;1.00
296;DHT22;132;48.770;9.200;2023-02-08T01:48:33;-2.90;1.00
296;DHT22;132;48.770;9.200;2023-02-08T01:51:08;-2.80;1.00
296;DHT22;132;48.770;9.200;2023-02-08T01:53:39;-2.70;1.00
296;DHT22;132;48.770;9.200;2023-02-08T01:56:10;-2.90;1.00
296;DHT22;132;48.770;9.200;2023-02-08T01:58:42;-2.80;1.00
296;DHT22;132;48.770;9.200;2023-02-08T02:01:10;-2.90;1.00
296;DHT22;132;48.770;9.200;2023-02-08T02:03:39;-2.80;1.00
296;DHT22;132;48.770;9.200;2023-02-08T02:06:12;-2.80;1.00
296;DHT22;132;48.770;9.200;2023-02-08T02:08:59;-2.80;1.00
296;DHT22;132;48.770;9.200;2023-02-08T02:11:27;-2.90;1.00
296;DHT22;132;48.770;9.200;2023-02-08T02:13:54;-2.90;1.00
296;DHT22;132;48.770;9.200;2023-02-08T02:16:20;-2.90;1.00
296;DHT22;132;48.770;9.200;2023-02-08T02:18:47;-2.90;1.00
296;DHT22;132;48.770;9.200;2023-02-08T02:34:45;-3.00;1.00
296;DHT22;132;48.770;9.200;2023-02-08T02:42:29;-3.10;1.00
296;DHT22;132;48.770;9.200;2023-02-08T02:45:22;-3.20;1.00
296;DHT22;132;48.770;9.200;2023-02-08T02:47:51;-3.20;1.00
296;DHT22;132;48.770;9.200;2023-02-08T02:53:05;-3.00;1.00
296;DHT22;132;48.770;9.200;2023-02-08T02:55:37;-3.10;1.00
296;DHT22;132;48.770;9.200;2023-02-08T02:58:08;-3.20;1.00
296;DHT22;132;48.770;9.200;2023-02-08T03:00:35;-3.20;1.00
296;DHT22;132;48.770;9.200;2023-02-08T03:03:02;-3.20;1.00
296;DHT22;132;48.770;9.200;2023-02-08T03:05:29;-3.20;1.00
296;DHT22;132;48.770;9.200;2023-02-08T03:10:49;-3.30;1.00
296;DHT22;132;48.770;9.200;2023-02-08T03:16:11;-3.20;1.00
296;DHT22;132;48.770;9.200;2023-02-08T03:24:22;-3.20;1.00
296;DHT22;132;48.770;9.200;2023-02-08T03:32:18;-3.20;1.00
296;DHT22;132;48.770;9.200;2023-02-08T03:35:00;-3.20;1.00
296;DHT22;132;48.770;9.200;2023-02-08T03:37:35;-3.20;1.00
296;DHT22;132;48.770;9.200;2023-02-08T03:42:40;-3.20;1.00
296;DHT22;132;48.770;9.200;2023-02-08T03:45:15;-3.30;1.00
296;DHT22;132;48.770;9.200;2023-02-08T03:47:44;-3.30;1.00
296;DHT22;132;48.770;9.200;2023-02-08T03:50:14;-3.30;1.00
296;DHT22;132;48.770;9.200;2023-02-08T03:52:46;-3.30;1.00
296;DHT22;132;48.770;9.200;2023-02-08T03:55:17;-3.20;1.00
296;DHT22;132;48.770;9.200;2023-02-08T04:00:17;-3.10;1.00
296;DHT22;132;48.770;9.200;2023-02-08T04:03:10;-3.20;1.00
296;DHT22;132;48.770;9.200;2023-02-08T04:05:39;-3.20;1.00
296;DHT22;132;48.770;9.200;2023-02-08T04:08:06;-3.30;1.00
296;DHT22;132;48.770;9.200;2023-02-08T04:10:32;-3.30;1.00
296;DHT22;132;48.770;9.200;2023-02-08T04:12:58;-3.40;1.00
296;DHT22;132;48.770;9.200;2023-02-08T04:15:25;-3.40;1.00
296;DHT22;132;48.770;9.200;2023-02-08T04:17:53;-3.30;1.00
296;DHT22;132;48.770;9.200;2023-02-08T04:20:19;-3.40;1.00
296;DHT22;132;48.770;9.200;2023-02-08T04:22:46;-3.40;1.00
296;DHT22;132;48.770;9.200;2023-02-08T04:25:13;-3.40;1.00
296;DHT22;132;48.770;9.200;2023-02-08T04:27:39;-3.40;1.00
296;DHT22;132;48.770;9.200;2023-02-08T04:30:06;-3.40;1.00
296;DHT22;132;48.770;9.200;2023-02-08T04:32:33;-3.40;1.00
296;DHT22;132;48.770;9.200;2023-02-08T04:34:59;-3.40;1.00
296;DHT22;132;48.770;9.200;2023-02-08T04:37:26;-3.40;1.00
296;DHT22;132;48.770;9.200;2023-02-08T04:39:52;-3.20;1.00
296;DHT22;132;48.770;9.200;2023-02-08T04:42:19;-3.40;1.00
296;DHT22;132;48.770;9.200;2023-02-08T04:44:45;-3.40;1.00
296;DHT22;132;48.770;9.200;2023-02-08T04:47:11;-3.40;1.00
296;DHT22;132;48.770;9.200;2023-02-08T04:49:38;-3.40;1.00
296;DHT22;132;48.770;9.200;2023-02-08T04:52:04;-3.50;1.00
296;DHT22;132;48.770;9.200;2023-02-08T04:54:31;-3.50;1.00
296;DHT22;132;48.770;9.200;2023-02-08T04:56:57;-3.50;1.00
296;DHT22;132;48.770;9.200;2023-02-08T04:59:23;-3.60;1.00
296;DHT22;132;48.770;9.200;2023-02-08T05:01:50;-3.50;1.00
296;DHT22;132;48.770;9.200;2023-02-08T05:04:16;-3.50;1.00
296;DHT22;132;48.770;9.200;2023-02-08T05:06:43;-3.50;1.00
296;DHT22;132;48.770;9.200;2023-02-08T05:09:09;-3.50;1.00
296;DHT22;132;48.770;9.200;2023-02-08T05:11:36;-3.50;1.00
296;DHT22;132;48.770;9.200;2023-02-08T05:14:02;-3.60;1.00
296;DHT22;132;48.770;9.200;2023-02-08T05:16:29;-3.60;1.00
296;DHT22;132;48.770;9.200;2023-02-08T05:18:56;-3.60;1.00
296;DHT22;132;48.770;9.200;2023-02-08T05:21:22;-3.60;1.00
296;DHT22;132;48.770;9.200;2023-02-08T05:23:50;-3.60;1.00
296;DHT22;132;48.770;9.200;2023-02-08T05:26:16;-3.60;1.00
296;DHT22;132;48.770;9.200;2023-02-08T05:28:43;-3.60;1.00
296;DHT22;132;48.770;9.200;2023-02-08T05:31:19;-3.60;1.00
296;DHT22;132;48.770;9.200;2023-02-08T05:33:48;-3.60;1.00
296;DHT22;132;48.770;9.200;2023-02-08T05:36:14;-3.60;1.00
296;DHT22;132;48.770;9.200;2023-02-08T05:38:41;-3.60;1.00
296;DHT22;132;48.770;9.200;2023-02-08T05:41:08;-3.60;1.00
296;DHT22;132;48.770;9.200;2023-02-08T05:43:35;-3.60;1.00
296;DHT22;132;48.770;9.200;2023-02-08T05:46:02;-3.60;1.00
296;DHT22;132;48.770;9.200;2023-02-08T05:48:29;-3.60;1.00
296;DHT22;132;48.770;9.200;2023-02-08T05:50:56;-3.60;1.00
296;DHT22;132;48.770;9.200;2023-02-08T05:53:22;-3.60;1.00
296;DHT22;132;48.770;9.200;2023-02-08T05:55:49;-3.70;1.00
296;DHT22;132;48.770;9.200;2023-02-08T05:58:16;-3.70;1.00
296;DHT22;132;48.770;9.200;2023-02-08T06:00:43;-3.50;1.00
296;DHT22;132;48.770;9.200;2023-02-08T06:03:09;-3.60;1.00
296;DHT22;132;48.770;9.200;2023-02-08T06:05:40;-3.60;1.00
296;DHT22;132;48.770;9.200;2023-02-08T06:08:07;-3.70;1.00
296;DHT22;132;48.770;9.200;2023-02-08T06:10:34;-3.70;1.00
296;DHT22;132;48.770;9.200;2023-02-08T06:13:01;-3.70;1.00
296;DHT22;132;48.770;9.200;2023-02-08T06:15:28;-3.70;1.00
296;DHT22;132;48.770;9.200;2023-02-08T06:17:55;-3.70;1.00
296;DHT22;132;48.770;9.200;2023-02-08T06:20:21;-3.70;1.00
296;DHT22;132;48.770;9.200;2023-02-08T06:22:48;-3.70;1.00
296;DHT22;132;48.770;9.200;2023-02-08T06:25:14;-3.70;1.00
296;DHT22;132;48.770;9.200;2023-02-08T06:27:40;-3.70;1.00
296;DHT22;132;48.770;9.200;2023-02-08T06:30:07;-3.70;1.00
296;DHT22;132;48.770;9.200;2023-02-08T06:32:34;-3.70;1.00
296;DHT22;132;48.770;9.200;2023-02-08T06:35:00;-3.70;1.00
296;DHT22;132;48.770;9.200;2023-02-08T06:37:26;-3.70;1.00
296;DHT22;132;48.770;9.200;2023-02-08T06:39:53;-3.70;1.00
296;DHT22;132;48.770;9.200;2023-02-08T06:42:19;-3.70;1.00
296;DHT22;132;48.770;9.200;2023-02-08T06:44:46;-3.70;1.00
296;DHT22;132;48.770;9.200;2023-02-08T06:47:15;-3.70;1.00
296;DHT22;132;48.770;9.200;2023-02-08T06:49:41;-3.50;1.00
296;DHT22;132;48.770;9.200;2023-02-08T06:52:08;-3.70;1.00
296;DHT22;132;48.770;9.200;2023-02-08T06:54:34;-3.50;1.00
296;DHT22;132;48.770;9.200;2023-02-08T06:57:00;-3.70;1.00
296;DHT22;132;48.770;9.200;2023-02-08T06:59:27;-3.60;1.00
296;DHT22;132;48.770;9.200;2023-02-08T07:01:53;-3.60;1.00
296;DHT22;132;48.770;9.200;2023-02-08T07:04:20;-3.50;1.00
296;DHT22;132;48.770;9.200;2023-02-08T07:06:49;-3.60;1.00
296;DHT22;132;48.770;9.200;2023-02-08T07:09:16;-3.60;1.00
296;DHT22;132;48.770;9.200;2023-02-08T07:11:42;-3.60;1.00
296;DHT22;132;48.770;9.200;2023-02-08T07:14:13;-3.60;1.00
296;DHT22;132;48.770;9.200;2023-02-08T07:16:40;-3.60;1.00
296;DHT22;132;48.770;9.200;2023-02-08T07:19:06;-3.60;1.00
296;DHT22;132;48.770;9.200;2023-02-08T07:21:33;-3.60;1.00
296;DHT22;132;48.770;9.200;2023-02-08T07:23:59;-3.60;1.00
296;DHT22;132;48.770;9.200;2023-02-08T07:26:26;-4.00;1.00
296;DHT22;132;48.770;9.200;2023-02-08T07:28:52;-3.50;1.00
296;DHT22;132;48.770;9.200;2023-02-08T07:31:18;-3.60;1.00
296;DHT22;132;48.770;9.200;2023-02-08T07:33:45;-3.60;1.00
296;DHT22;132;48.770;9.200;2023-02-08T07:36:11;-3.60;1.00
296;DHT22;132;48.770;9.200;2023-02-08T07:38:38;-3.60;1.00
296;DHT22;132;48.770;9.200;2023-02-08T07:41:07;-3.50;1.00
296;DHT22;132;48.770;9.200;2023-02-08T07:43:34;-3.50;1.00
296;DHT22;132;48.770;9.200;2023-02-08T07:48:36;-3.40;1.00
296;DHT22;132;48.770;9.200;2023-02-08T07:51:03;-3.40;1.00
296;DHT22;132;48.770;9.200;2023-02-08T07:53:30;-3.40;1.00
296;DHT22;132;48.770;9.200;2023-02-08T07:55:57;-3.40;1.00
296;DHT22;132;48.770;9.200;2023-02-08T07:58:24;-3.30;1.00
296;DHT22;132;48.770;9.200;2023-02-08T08:00:51;-3.30;1.00
296;DHT22;132;48.770;9.200;2023-02-08T08:03:17;-3.20;1.00
296;DHT22;132;48.770;9.200;2023-02-08T08:05:44;-3.00;1.00
296;DHT22;132;48.770;9.200;2023-02-08T08:08:11;-3.10;1.00
296;DHT22;132;48.770;9.200;2023-02-08T08:10:38;-3.00;1.00
296;DHT22;132;48.770;9.200;2023-02-08T08:13:05;-3.00;1.00
296;DHT22;132;48.770;9.200;2023-02-08T08:15:31;-3.00;1.00
296;DHT22;132;48.770;9.200;2023-02-08T08:17:58;-2.90;1.00
296;DHT22;132;48.770;9.200;2023-02-08T08:20:24;-2.90;1.00
296;DHT22;132;48.770;9.200;2023-02-08T08:22:51;-2.80;1.00
296;DHT22;132;48.770;9.200;2023-02-08T08:25:17;-2.80;1.00
296;DHT22;132;48.770;9.200;2023-02-08T08:27:43;-2.60;1.00
296;DHT22;132;48.770;9.200;2023-02-08T08:30:13;-2.80;1.00
296;DHT22;132;48.770;9.200;2023-02-08T08:32:39;-2.70;1.00
296;DHT22;132;48.770;9.200;2023-02-08T08:35:07;-2.70;1.00
296;DHT22;132;48.770;9.200;2023-02-08T08:37:34;-2.60;1.00
296;DHT22;132;48.770;9.200;2023-02-08T08:40:01;-2.30;1.00
296;DHT22;132;48.770;9.200;2023-02-08T08:42:27;-2.50;1.00
296;DHT22;132;48.770;9.200;2023-02-08T08:44:54;-2.50;1.00
296;DHT22;132;48.770;9.200;2023-02-08T08:47:20;-2.30;1.00
296;DHT22;132;48.770;9.200;2023-02-08T08:49:47;-2.30;1.00
296;DHT22;132;48.770;9.200;2023-02-08T08:52:13;-2.30;1.00
296;DHT22;132;48.770;9.200;2023-02-08T08:54:40;-2.20;1.00
296;DHT22;132;48.770;9.200;2023-02-08T08:57:07;-2.10;1.00
296;DHT22;132;48.770;9.200;2023-02-08T08:59:33;-2.10;1.00
296;DHT22;132;48.770;9.200;2023-02-08T09:02:00;-2.00;1.00
296;DHT22;132;48.770;9.200;2023-02-08T09:04:26;-1.90;1.00
296;DHT22;132;48.770;9.200;2023-02-08T09:06:53;-1.90;1.00
296;DHT22;132;48.770;9.200;2023-02-08T09:09:21;-1.80;1.00
296;DHT22;132;48.770;9.200;2023-02-08T09:11:48;-1.70;1.00
296;DHT22;132;48.770;9.200;2023-02-08T09:14:14;-1.70;1.00
296;DHT22;132;48.770;9.200;2023-02-08T09:16:42;-1.70;1.00
296;DHT22;132;48.770;9.200;2023-02-08T09:19:13;-1.70;1.00
296;DHT22;132;48.770;9.200;2023-02-08T09:21:39;-1.60;1.00
296;DHT22;132;48.770;9.200;2023-02-08T09:24:06;-1.60;1.00
296;DHT22;132;48.770;9.200;2023-02-08T09:26:32;-1.40;1.00
296;DHT22;132;48.770;9.200;2023-02-08T09:28:59;-1.40;1.00
296;DHT22;132;48.770;9.200;2023-02-08T09:31:28;-1.40;1.00
296;DHT22;132;48.770;9.200;2023-02-08T09:33:56;-1.30;1.00
296;DHT22;132;48.770;9.200;2023-02-08T09:36:27;-1.20;1.00
296;DHT22;132;48.770;9.200;2023-02-08T09:38:56;-1.10;1.00
296;DHT22;132;48.770;9.200;2023-02-08T09:47:08;-1.00;1.00
296;DHT22;132;48.770;9.200;2023-02-08T09:50:03;-0.90;1.00
296;DHT22;132;48.770;9.200;2023-02-08T09:52:41;-0.80;1.00
296;DHT22;132;48.770;9.200;2023-02-08T09:55:37;-0.60;1.00
296;DHT22;132;48.770;9.200;2023-02-08T10:00:52;-0.60;1.00
296;DHT22;132;48.770;9.200;2023-02-08T10:06:00;-0.40;1.00
296;DHT22;132;48.770;9.200;2023-02-08T10:08:28;-0.40;1.00
296;DHT22;132;48.770;9.200;2023-02-08T10:14:00;-0.20;1.00
296;DHT22;132;48.770;9.200;2023-02-08T10:24:48;0.10;1.00
296;DHT22;132;48.770;9.200;2023-02-08T10:27:23;0.20;1.00
296;DHT22;132;48.770;9.200;2023-02-08T10:30:16;0.30;1.00
296;DHT22;132;48.770;9.200;2023-02-08T10:32:53;0.30;1.00
296;DHT22;132;48.770;9.200;2023-02-08T10:35:28;0.40;1.00
296;DHT22;132;48.770;9.200;2023-02-08T10:37:58;0.50;1.00
296;DHT22;132;48.770;9.200;2023-02-08T10:40:34;0.50;1.00
296;DHT22;132;48.770;9.200;2023-02-08T10:45:44;0.60;1.00
296;DHT22;132;48.770;9.200;2023-02-08T10:48:17;0.70;1.00
296;DHT22;132;48.770;9.200;2023-02-08T10:50:47;0.70;1.00
296;DHT22;132;48.770;9.200;2023-02-08T10:53:15;0.80;1.00
296;DHT22;132;48.770;9.200;2023-02-08T10:55:44;0.90;1.00
296;DHT22;132;48.770;9.200;2023-02-08T10:58:20;1.00;1.00
296;DHT22;132;48.770;9.200;2023-02-08T11:00:48;1.00;1.00
296;DHT22;132;48.770;9.200;2023-02-08T11:03:21;1.00;1.00
296;DHT22;132;48.770;9.200;2023-02-08T11:05:48;1.10;1.00
296;DHT22;132;48.770;9.200;2023-02-08T11:08:25;1.20;1.00
296;DHT22;132;48.770;9.200;2023-02-08T11:10:56;1.30;1.00
296;DHT22;132;48.770;9.200;2023-02-08T11:13:30;1.40;1.00
296;DHT22;132;48.770;9.200;2023-02-08T11:16:03;1.50;1.00
296;DHT22;132;48.770;9.200;2023-02-08T11:18:40;1.50;1.00
296;DHT22;132;48.770;9.200;2023-02-08T11:21:20;1.60;1.00
296;DHT22;132;48.770;9.200;2023-02-08T11:23:50;1.60;1.00
296;DHT22;132;48.770;9.200;2023-02-08T11:26:35;1.70;1.00
296;DHT22;132;48.770;9.200;2023-02-08T11:29:14;1.60;1.00
296;DHT22;132;48.770;9.200;2023-02-08T11:36:55;1.70;1.00
296;DHT22;132;48.770;9.200;2023-02-08T11:39:26;1.90;1.00
296;DHT22;132;48.770;9.200;2023-02-08T11:41:57;2.00;1.00
296;DHT22;132;48.770;9.200;2023-02-08T11:44:31;2.00;1.00
296;DHT22;132;48.770;9.200;2023-02-08T11:47:04;2.00;1.00
296;DHT22;132;48.770;9.200;2023-02-08T11:52:04;2.20;1.00
296;DHT22;132;48.770;9.200;2023-02-08T11:54:38;2.20;1.00
296;DHT22;132;48.770;9.200;2023-02-08T11:57:16;2.30;1.00
296;DHT22;132;48.770;9.200;2023-02-08T11:59:45;2.40;1.00
296;DHT22;132;48.770;9.200;2023-02-08T12:02:36;2.40;1.00
296;DHT22;132;48.770;9.200;2023-02-08T12:05:12;2.70;1.00
296;DHT22;132;48.770;9.200;2023-02-08T12:08:03;2.50;1.00
296;DHT22;132;48.770;9.200;2023-02-08T12:10:39;3.00;1.00
296;DHT22;132;48.770;9.200;2023-02-08T12:13:23;2.70;1.00
296;DHT22;132;48.770;9.200;2023-02-08T12:16:02;2.70;1.00
296;DHT22;132;48.770;9.200;2023-02-08T12:19:49;2.80;1.00
296;DHT22;132;48.770;9.200;2023-02-08T12:21:45;2.90;1.00
296;DHT22;132;48.770;9.200;2023-02-08T12:27:06;2.90;1.00
296;DHT22;132;48.770;9.200;2023-02-08T12:30:26;3.00;1.00
296;DHT22;132;48.770;9.200;2023-02-08T12:32:31;3.00;1.00
296;DHT22;132;48.770;9.200;2023-02-08T12:37:51;3.10;1.00
296;DHT22;132;48.770;9.200;2023-02-08T12:40:54;3.10;1.00
296;DHT22;132;48.770;9.200;2023-02-08T12:43:51;3.10;1.00
296;DHT22;132;48.770;9.200;2023-02-08T12:56:55;3.20;1.00
296;DHT22;132;48.770;9.200;2023-02-08T12:59:27;3.20;1.00
296;DHT22;132;48.770;9.200;2023-02-08T13:01:59;3.30;1.00
296;DHT22;132;48.770;9.200;2023-02-08T13:04:33;3.10;1.00
296;DHT22;132;48.770;9.200;2023-02-08T13:07:11;3.10;1.00
296;DHT22;132;48.770;9.200;2023-02-08T13:09:43;3.30;1.00
296;DHT22;132;48.770;9.200;2023-02-08T13:13:08;4.30;1.00
296;DHT22;132;48.770;9.200;2023-02-08T13:15:55;3.40;1.00
296;DHT22;132;48.770;9.200;2023-02-08T13:17:57;3.50;1.00
296;DHT22;132;48.770;9.200;2023-02-08T13:23:06;3.50;1.00
296;DHT22;132;48.770;9.200;2023-02-08T13:25:38;3.50;1.00
296;DHT22;132;48.770;9.200;2023-02-08T13:28:07;3.50;1.00
296;DHT22;132;48.770;9.200;2023-02-08T13:30:37;3.50;1.00
296;DHT22;132;48.770;9.200;2023-02-08T13:33:27;3.60;1.00
296;DHT22;132;48.770;9.200;2023-02-08T13:35:54;3.60;1.00
296;DHT22;132;48.770;9.200;2023-02-08T13:38:32;3.60;1.00
296;DHT22;132;48.770;9.200;2023-02-08T13:41:17;3.60;1.00
296;DHT22;132;48.770;9.200;2023-02-08T13:43:54;3.60;1.00
296;DHT22;132;48.770;9.200;2023-02-08T13:46:23;3.60;1.00
296;DHT22;132;48.770;9.200;2023-02-08T13:48:54;3.50;1.00
296;DHT22;132;48.770;9.200;2023-02-08T13:56:40;3.70;1.00
296;DHT22;132;48.770;9.200;2023-02-08T13:59:33;3.70;1.00
296;DHT22;132;48.770;9.200;2023-02-08T14:04:45;3.80;1.00
296;DHT22;132;48.770;9.200;2023-02-08T14:07:22;4.70;1.00
296;DHT22;132;48.770;9.200;2023-02-08T14:10:16;3.80;1.00
296;DHT22;132;48.770;9.200;2023-02-08T14:13:04;3.80;1.00
296;DHT22;132;48.770;9.200;2023-02-08T14:15:37;3.70;1.00
296;DHT22;132;48.770;9.200;2023-02-08T14:18:35;3.70;1.00
296;DHT22;132;48.770;9.200;2023-02-08T14:21:03;3.80;1.00
296;DHT22;132;48.770;9.200;2023-02-08T14:23:32;3.70;1.00
296;DHT22;132;48.770;9.200;2023-02-08T14:26:07;3.60;1.00
296;DHT22;132;48.770;9.200;2023-02-08T14:28:37;3.60;1.00
296;DHT22;132;48.770;9.200;2023-02-08T14:31:07;3.50;1.00
296;DHT22;132;48.770;9.200;2023-02-08T14:33:41;3.70;1.00
296;DHT22;132;48.770;9.200;2023-02-08T14:36:33;3.50;1.00
296;DHT22;132;48.770;9.200;2023-02-08T14:41:51;3.60;1.00
296;DHT22;132;48.770;9.200;2023-02-08T14:50:00;3.60;1.00
296;DHT22;132;48.770;9.200;2023-02-08T14:52:28;3.50;1.00
296;DHT22;132;48.770;9.200;2023-02-08T14:55:15;3.60;1.00
296;DHT22;132;48.770;9.200;2023-02-08T14:57:42;3.50;1.00
296;DHT22;132;48.770;9.200;2023-02-08T15:00:36;3.50;1.00
296;DHT22;132;48.770;9.200;2023-02-08T15:03:04;3.60;1.00
296;DHT22;132;48.770;9.200;2023-02-08T15:05:40;3.50;1.00
296;DHT22;132;48.770;9.200;2023-02-08T15:08:07;3.50;1.00
296;DHT22;132;48.770;9.200;2023-02-08T15:10:34;3.40;1.00
296;DHT22;132;48.770;9.200;2023-02-08T15:13:17;3.40;1.00
296;DHT22;132;48.770;9.200;2023-02-08T15:15:44;3.40;1.00
296;DHT22;132;48.770;9.200;2023-02-08T15:18:24;3.30;1.00
296;DHT22;132;48.770;9.200;2023-02-08T15:21:02;3.40;1.00
296;DHT22;132;48.770;9.200;2023-02-08T15:23:29;3.30;1.00
296;DHT22;132;48.770;9.200;2023-02-08T15:25:58;3.30;1.00
296;DHT22;132;48.770;9.200;2023-02-08T15:28:27;3.20;1.00
296;DHT22;132;48.770;9.200;2023-02-08T15:30:57;3.10;1.00
296;DHT22;132;48.770;9.200;2023-02-08T15:33:24;3.10;1.00
296;DHT22;132;48.770;9.200;2023-02-08T15:36:04;2.80;1.00
296;DHT22;132;48.770;9.200;2023-02-08T15:38:30;2.80;1.00
296;DHT22;132;48.770;9.200;2023-02-08T15:41:09;2.70;1.00
296;DHT22;132;48.770;9.200;2023-02-08T15:43:36;2.70;1.00
296;DHT22;132;48.770;9.200;2023-02-08T15:46:06;2.60;1.00
296;DHT22;132;48.770;9.200;2023-02-08T15:48:43;2.50;1.00
296;DHT22;132;48.770;9.200;2023-02-08T15:51:12;2.40;1.00
296;DHT22;132;48.770;9.200;2023-02-08T15:53:42;2.30;1.00
296;DHT22;132;48.770;9.200;2023-02-08T15:56:09;2.30;1.00
296;DHT22;132;48.770;9.200;2023-02-08T15:58:44;2.00;1.00
296;DHT22;132;48.770;9.200;2023-02-08T16:01:16;2.10;1.00
296;DHT22;132;48.770;9.200;2023-02-08T16:03:54;2.00;1.00
296;DHT22;132;48.770;9.200;2023-02-08T16:06:24;1.90;1.00
296;DHT22;132;48.770;9.200;2023-02-08T16:08:54;1.90;1.00
296;DHT22;132;48.770;9.200;2023-02-08T16:11:27;1.80;1.00
296;DHT22;132;48.770;9.200;2023-02-08T16:13:56;1.80;1.00
296;DHT22;132;48.770;9.200;2023-02-08T16:16:39;1.70;1.00
296;DHT22;132;48.770;9.200;2023-02-08T16:21:53;1.60;1.00
296;DHT22;132;48.770;9.200;2023-02-08T16:24:25;1.50;1.00
296;DHT22;132;48.770;9.200;2023-02-08T16:27:13;1.50;1.00
296;DHT22;132;48.770;9.200;2023-02-08T16:29:40;1.40;1.00
296;DHT22;132;48.770;9.200;2023-02-08T16:32:32;1.30;1.00
296;DHT22;132;48.770;9.200;2023-02-08T16:35:11;1.30;1.00
296;DHT22;132;48.770;9.200;2023-02-08T16:37:38;1.20;1.00
296;DHT22;132;48.770;9.200;2023-02-08T16:40:40;1.10;1.00
296;DHT22;132;48.770;9.200;2023-02-08T16:43:29;1.10;1.00
296;DHT22;132;48.770;9.200;2023-02-08T16:46:20;0.90;1.00
296;DHT22;132;48.770;9.200;2023-02-08T16:51:30;0.80;1.00
296;DHT22;132;48.770;9.200;2023-02-08T16:54:03;0.70;1.00
296;DHT22;132;48.770;9.200;2023-02-08T16:56:36;0.70;1.00
296;DHT22;132;48.770;9.200;2023-02-08T16:59:03;0.50;1.00
296;DHT22;132;48.770;9.200;2023-02-08T17:01:30;0.50;1.00
296;DHT22;132;48.770;9.200;2023-02-08T17:03:58;0.40;1.00
296;DHT22;132;48.770;9.200;2023-02-08T17:06:29;0.50;1.00
296;DHT22;132;48.770;9.200;2023-02-08T17:08:57;0.50;1.00
296;DHT22;132;48.770;9.200;2023-02-08T17:11:24;0.20;1.00
296;DHT22;132;48.770;9.200;2023-02-08T17:13:51;0.20;1.00
296;DHT22;132;48.770;9.200;2023-02-08T17:16:22;0.10;1.00
296;DHT22;132;48.770;9.200;2023-02-08T17:18:49;0.10;1.00
296;DHT22;132;48.770;9.200;2023-02-08T17:21:18;0.00;1.00
296;DHT22;132;48.770;9.200;2023-02-08T17:23:45;-0.10;1.00
296;DHT22;132;48.770;9.200;2023-02-08T17:26:17;-0.10;1.00
296;DHT22;132;48.770;9.200;2023-02-08T17:28:45;-0.10;1.00
296;DHT22;132;48.770;9.200;2023-02-08T17:31:12;-0.10;1.00
296;DHT22;132;48.770;9.200;2023-02-08T17:33:39;-0.10;1.00
296;DHT22;132;48.770;9.200;2023-02-08T17:36:07;-0.10;1.00
296;DHT22;132;48.770;9.200;2023-02-08T17:38:34;-0.10;1.00
296;DHT22;132;48.770;9.200;2023-02-08T17:41:11;-0.10;1.00
296;DHT22;132;48.770;9.200;2023-02-08T17:43:38;-0.20;1.00
296;DHT22;132;48.770;9.200;2023-02-08T17:46:14;-0.20;1.00
296;DHT22;132;48.770;9.200;2023-02-08T17:48:41;0.00;1.00
296;DHT22;132;48.770;9.200;2023-02-08T17:51:14;0.50;1.00
296;DHT22;132;48.770;9.200;2023-02-08T17:53:41;-0.30;1.00
296;DHT22;132;48.770;9.200;2023-02-08T17:56:10;-0.30;1.00
296;DHT22;132;48.770;9.200;2023-02-08T17:58:42;-0.80;1.00
296;DHT22;132;48.770;9.200;2023-02-08T18:01:13;-0.40;1.00
296;DHT22;132;48.770;9.200;2023-02-08T18:03:46;-0.40;1.00
296;DHT22;132;48.770;9.200;2023-02-08T18:06:12;-0.50;1.00
296;DHT22;132;48.770;9.200;2023-02-08T18:08:40;-0.50;1.00
296;DHT22;132;48.770;9.200;2023-02-08T18:11:09;-0.50;1.00
296;DHT22;132;48.770;9.200;2023-02-08T18:13:38;-0.50;1.00
296;DHT22;132;48.770;9.200;2023-02-08T18:16:09;-0.60;1.00
296;DHT22;132;48.770;9.200;2023-02-08T18:18:35;-0.60;1.00
296;DHT22;132;48.770;9.200;2023-02-08T18:21:11;-0.60;1.00
296;DHT22;132;48.770;9.200;2023-02-08T18:23:38;-1.50;1.00
296;DHT22;132;48.770;9.200;2023-02-08T18:26:08;-0.60;1.00
296;DHT22;132;48.770;9.200;2023-02-08T18:28:35;-0.60;1.00
296;DHT22;132;48.770;9.200;2023-02-08T18:31:07;-0.60;1.00
296;DHT22;132;48.770;9.200;2023-02-08T18:33:34;-0.60;1.00
296;DHT22;132;48.770;9.200;2023-02-08T18:36:01;-0.60;1.00
296;DHT22;132;48.770;9.200;2023-02-08T18:38:28;-0.60;1.00
296;DHT22;132;48.770;9.200;2023-02-08T18:40:54;-0.70;1.00
296;DHT22;132;48.770;9.200;2023-02-08T18:43:20;-0.70;1.00
296;DHT22;132;48.770;9.200;2023-02-08T18:46:05;-0.60;1.00
296;DHT22;132;48.770;9.200;2023-02-08T18:48:32;-0.60;1.00
296;DHT22;132;48.770;9.200;2023-02-08T18:51:00;-0.70;1.00
296;DHT22;132;48.770;9.200;2023-02-08T18:53:30;-0.70;1.00
296;DHT22;132;48.770;9.200;2023-02-08T18:55:58;-0.70;1.00
296;DHT22;132;48.770;9.200;2023-02-08T18:58:27;-0.70;1.00
296;DHT22;132;48.770;9.200;2023-02-08T19:00:54;-0.70;1.00
296;DHT22;132;48.770;9.200;2023-02-08T19:03:21;-0.70;1.00
296;DHT22;132;48.770;9.200;2023-02-08T19:05:48;-0.80;1.00
296;DHT22;132;48.770;9.200;2023-02-08T19:08:14;-0.70;1.00
296;DHT22;132;48.770;9.200;2023-02-08T19:10:41;-0.70;1.00
296;DHT22;132;48.770;9.200;2023-02-08T19:13:08;-0.80;1.00
296;DHT22;132;48.770;9.200;2023-02-08T19:15:37;-0.80;1.00
296;DHT22;132;48.770;9.200;2023-02-08T19:18:04;-0.80;1.00
296;DHT22;132;48.770;9.200;2023-02-08T19:20:34;-0.80;1.00
296;DHT22;132;48.770;9.200;2023-02-08T19:23:05;-0.80;1.00